createdAt,value
2022-11-09T00:00:12.659Z,14.96
2022-11-09T00:02:43.846Z,14.98
2022-11-09T00:05:12.940Z,15.00
2022-11-09T00:07:40.403Z,15.06
2022-11-09T00:10:08.446Z,15.04
2022-11-09T00:12:35.933Z,15.04
2022-11-09T00:15:03.433Z,14.99
2022-11-09T00:17:30.899Z,14.98
2022-11-09T00:19:58.344Z,14.99
2022-11-09T00:22:27.162Z,15.05
2022-11-09T00:24:54.663Z,15.06
2022-11-09T00:27:22.148Z,15.02
2022-11-09T00:29:49.623Z,15.08
2022-11-09T00:32:17.050Z,15.02
2022-11-09T00:34:45.036Z,14.98
2022-11-09T00:37:12.528Z,15.00
2022-11-09T00:39:41.372Z,15.04
2022-11-09T00:42:08.879Z,15.07
2022-11-09T00:44:36.331Z,15.00
2022-11-09T00:47:03.807Z,15.01
2022-11-09T00:49:31.279Z,15.06
2022-11-09T00:51:58.753Z,14.96
2022-11-09T00:54:26.219Z,15.01
2022-11-09T00:56:55.108Z,15.11
2022-11-09T00:59:22.551Z,15.00
2022-11-09T01:01:50.011Z,15.04
2022-11-09T01:04:17.507Z,14.98
2022-11-09T01:06:45.037Z,15.05
2022-11-09T01:09:13.572Z,15.00
2022-11-09T01:11:41.104Z,15.04
2022-11-09T01:14:10.156Z,14.94
2022-11-09T01:16:37.975Z,14.89
2022-11-09T01:19:05.571Z,14.96
2022-11-09T01:21:33.049Z,14.88
2022-11-09T01:24:01.600Z,14.95
2022-11-09T01:26:29.558Z,14.92
2022-11-09T01:28:57.022Z,14.95
2022-11-09T01:31:26.212Z,14.92
2022-11-09T01:33:53.779Z,14.92
2022-11-09T01:36:23.722Z,14.88
2022-11-09T01:38:51.564Z,14.88
2022-11-09T01:41:21.082Z,14.98
2022-11-09T01:44:04.698Z,14.90
2022-11-09T01:46:36.508Z,14.90
2022-11-09T01:49:08.063Z,14.91
2022-11-09T01:51:38.315Z,14.91
2022-11-09T01:54:07.855Z,14.94
2022-11-09T01:56:35.352Z,14.93
2022-11-09T01:59:05.281Z,14.92
2022-11-09T02:01:34.203Z,14.96
2022-11-09T02:04:05.413Z,14.96
2022-11-09T02:06:33.777Z,14.95
2022-11-09T02:09:06.951Z,14.97
2022-11-09T02:11:36.159Z,14.87
2022-11-09T02:14:03.959Z,14.85
2022-11-09T02:16:31.452Z,14.97
2022-11-09T02:19:01.740Z,14.88
2022-11-09T02:21:31.915Z,14.87
2022-11-09T02:24:00.118Z,14.93
2022-11-09T02:26:31.107Z,14.95
2022-11-09T02:28:59.723Z,14.92
2022-11-09T02:31:30.594Z,15.03
2022-11-09T02:34:04.063Z,15.00
2022-11-09T02:36:32.895Z,14.98
2022-11-09T02:39:00.404Z,14.96
2022-11-09T02:41:28.823Z,14.91
2022-11-09T02:43:56.310Z,15.00
2022-11-09T02:46:32.924Z,14.92
2022-11-09T02:49:00.732Z,14.94
2022-11-09T02:51:31.421Z,15.08
2022-11-09T02:54:00.289Z,15.07
2022-11-09T02:56:27.816Z,15.01
2022-11-09T02:58:55.579Z,15.06
2022-11-09T03:01:23.272Z,15.09
2022-11-09T03:03:50.989Z,15.01
2022-11-09T03:06:18.511Z,15.04
2022-11-09T03:08:46.169Z,15.06
2022-11-09T03:11:15.076Z,15.09
2022-11-09T03:13:42.647Z,15.06
2022-11-09T03:16:10.620Z,15.08
2022-11-09T03:18:40.382Z,15.00
2022-11-09T03:21:09.741Z,15.17
2022-11-09T03:23:37.272Z,15.07
2022-11-09T03:26:04.984Z,15.15
2022-11-09T03:28:33.967Z,15.11
2022-11-09T03:31:01.559Z,15.14
2022-11-09T03:33:29.646Z,15.04
2022-11-09T03:35:57.251Z,15.07
2022-11-09T03:38:24.874Z,15.01
2022-11-09T03:40:52.461Z,15.11
2022-11-09T03:43:20.272Z,15.12
2022-11-09T03:45:49.605Z,15.08
2022-11-09T03:48:17.249Z,15.06
2022-11-09T03:50:44.771Z,15.08
2022-11-09T03:53:12.758Z,15.07
2022-11-09T03:55:40.867Z,15.10
2022-11-09T03:58:10.502Z,15.04
2022-11-09T04:00:38.032Z,15.08
2022-11-09T04:03:06.811Z,15.07
2022-11-09T04:05:34.286Z,15.08
2022-11-09T04:08:02.989Z,15.07
2022-11-09T04:10:30.439Z,14.99
2022-11-09T04:12:58.411Z,15.06
2022-11-09T04:15:25.862Z,15.10
2022-11-09T04:17:57.606Z,15.06
2022-11-09T04:20:26.595Z,15.06
2022-11-09T04:22:57.761Z,15.07
2022-11-09T04:25:25.839Z,15.15
2022-11-09T04:27:56.821Z,15.11
2022-11-09T04:30:24.770Z,15.08
2022-11-09T04:32:52.269Z,15.07
2022-11-09T04:35:19.726Z,15.14
2022-11-09T04:37:55.879Z,15.07
2022-11-09T04:40:23.774Z,15.05
2022-11-09T04:42:51.546Z,15.10
2022-11-09T04:45:19.228Z,15.13
2022-11-09T04:47:46.689Z,14.96
2022-11-09T04:50:14.397Z,14.96
2022-11-09T04:52:41.956Z,15.00
2022-11-09T04:55:10.893Z,15.01
2022-11-09T04:57:38.408Z,15.00
2022-11-09T05:00:07.165Z,14.97
2022-11-09T05:02:34.628Z,15.03
2022-11-09T05:05:02.087Z,15.05
2022-11-09T05:07:29.544Z,14.93
2022-11-09T05:09:57.019Z,14.88
2022-11-09T05:12:25.787Z,14.85
2022-11-09T05:14:53.263Z,15.01
2022-11-09T05:17:20.687Z,15.01
2022-11-09T05:19:49.592Z,15.11
2022-11-09T05:22:44.923Z,15.03
2022-11-09T05:25:12.548Z,14.97
2022-11-09T05:27:41.322Z,14.89
2022-11-09T05:30:09.771Z,14.90
2022-11-09T05:32:39.351Z,14.86
2022-11-09T05:35:07.909Z,14.95
2022-11-09T05:37:35.448Z,14.93
2022-11-09T05:40:02.902Z,14.89
2022-11-09T05:42:30.337Z,14.83
2022-11-09T05:45:15.050Z,14.90
2022-11-09T05:47:46.638Z,14.90
2022-11-09T05:50:16.845Z,14.90
2022-11-09T05:52:44.403Z,14.94
2022-11-09T05:55:11.859Z,14.88
2022-11-09T05:57:39.284Z,14.84
2022-11-09T06:00:11.085Z,14.84
2022-11-09T06:02:38.779Z,14.80
2022-11-09T06:05:06.652Z,14.72
2022-11-09T06:07:34.207Z,14.73
2022-11-09T06:10:03.899Z,14.71
2022-11-09T06:12:31.786Z,14.67
2022-11-09T06:14:59.271Z,14.70
2022-11-09T06:17:28.042Z,14.71
2022-11-09T06:19:55.587Z,14.66
2022-11-09T06:22:23.093Z,14.76
2022-11-09T06:24:50.617Z,14.81
2022-11-09T06:27:18.251Z,14.76
2022-11-09T06:29:45.931Z,14.76
2022-11-09T06:32:13.442Z,14.80
2022-11-09T06:34:43.162Z,14.84
2022-11-09T06:37:10.677Z,14.80
2022-11-09T06:39:38.195Z,14.79
2022-11-09T06:42:05.727Z,14.70
2022-11-09T06:44:33.265Z,14.71
2022-11-09T06:47:00.767Z,14.71
2022-11-09T06:49:28.363Z,14.65
2022-11-09T06:51:57.328Z,14.78
2022-11-09T06:54:24.820Z,14.80
2022-11-09T06:56:54.817Z,14.87
2022-11-09T06:59:22.427Z,14.83
2022-11-09T07:01:50.129Z,14.82
2022-11-09T07:04:17.649Z,14.68
2022-11-09T07:06:45.278Z,14.81
2022-11-09T07:09:14.141Z,14.82
2022-11-09T07:11:41.600Z,14.80
2022-11-09T07:14:09.145Z,14.91
2022-11-09T07:16:37.352Z,14.88
2022-11-09T07:19:04.823Z,14.81
2022-11-09T07:21:32.296Z,14.87
2022-11-09T07:23:59.827Z,14.87
2022-11-09T07:26:28.652Z,14.87
2022-11-09T07:28:56.128Z,14.84
2022-11-09T07:31:23.628Z,14.91
2022-11-09T07:33:51.284Z,14.99
2022-11-09T07:36:21.634Z,14.94
2022-11-09T07:38:49.383Z,14.92
2022-11-09T07:41:16.867Z,15.00
2022-11-09T07:43:45.730Z,15.10
2022-11-09T07:46:13.233Z,14.98
2022-11-09T07:48:40.715Z,14.83
2022-11-09T07:51:08.224Z,14.92
2022-11-09T07:53:35.736Z,14.81
2022-11-09T07:56:04.497Z,14.89
2022-11-09T07:58:32.757Z,14.88
2022-11-09T08:01:01.651Z,14.89
2022-11-09T08:03:29.103Z,15.01
2022-11-09T08:05:57.947Z,14.96
2022-11-09T08:08:25.534Z,14.91
2022-11-09T08:10:53.072Z,15.02
2022-11-09T08:13:21.359Z,14.97
2022-11-09T08:15:49.365Z,15.09
2022-11-09T08:18:20.858Z,15.01
2022-11-09T08:20:48.663Z,15.10
2022-11-09T08:23:18.630Z,15.16
2022-11-09T08:25:46.132Z,15.16
2022-11-09T08:28:15.158Z,15.12
2022-11-09T08:30:43.213Z,15.12
2022-11-09T08:33:11.248Z,15.12
2022-11-09T08:35:41.237Z,15.10
2022-11-09T08:38:08.681Z,15.11
2022-11-09T08:40:36.203Z,15.09
2022-11-09T08:43:05.373Z,15.10
2022-11-09T08:45:34.647Z,15.19
2022-11-09T08:48:02.929Z,15.21
2022-11-09T08:50:32.063Z,15.21
2022-11-09T08:53:01.217Z,15.25
2022-11-09T08:55:28.688Z,15.23
2022-11-09T08:57:57.122Z,15.29
2022-11-09T09:00:24.831Z,15.35
2022-11-09T09:02:52.481Z,15.31
2022-11-09T09:05:19.952Z,15.40
2022-11-09T09:07:47.459Z,15.27
2022-11-09T09:10:16.351Z,15.32
2022-11-09T09:12:43.905Z,15.38
2022-11-09T09:15:11.738Z,15.28
2022-11-09T09:17:39.212Z,15.24
2022-11-09T09:20:07.923Z,15.23
2022-11-09T09:22:35.693Z,15.18
2022-11-09T09:25:03.459Z,15.12
2022-11-09T09:27:32.332Z,15.01
2022-11-09T09:29:59.931Z,15.10
2022-11-09T09:32:27.526Z,15.17
2022-11-09T09:34:55.067Z,15.10
2022-11-09T09:37:22.732Z,15.11
2022-11-09T09:39:50.260Z,15.11
2022-11-09T09:42:20.536Z,15.08
2022-11-09T09:44:54.132Z,15.15
2022-11-09T09:47:24.788Z,15.22
2022-11-09T09:49:56.045Z,15.25
2022-11-09T09:52:30.212Z,15.32
2022-11-09T09:55:00.944Z,15.31
2022-11-09T09:57:29.791Z,15.41
2022-11-09T10:00:01.920Z,15.55
2022-11-09T10:02:30.644Z,15.56
2022-11-09T10:05:00.729Z,15.64
2022-11-09T10:07:31.741Z,15.66
2022-11-09T10:10:14.536Z,15.50
2022-11-09T10:12:52.927Z,15.56
2022-11-09T10:15:26.723Z,15.59
2022-11-09T10:18:03.573Z,15.69
2022-11-09T10:20:42.160Z,15.84
2022-11-09T10:23:29.782Z,15.72
2022-11-09T10:26:05.554Z,15.70
2022-11-09T10:28:54.733Z,15.63
2022-11-09T10:31:31.504Z,15.73
2022-11-09T10:34:03.677Z,15.75
2022-11-09T10:36:38.120Z,15.86
2022-11-09T10:39:05.694Z,15.85
2022-11-09T10:41:36.259Z,15.77
2022-11-09T10:44:03.773Z,15.78
2022-11-09T10:47:07.141Z,15.85
2022-11-09T10:49:35.043Z,15.98
2022-11-09T10:52:02.963Z,16.06
2022-11-09T10:54:33.640Z,16.10
2022-11-09T10:57:06.960Z,16.04
2022-11-09T10:59:45.670Z,16.15
2022-11-09T11:02:41.733Z,16.10
2022-11-09T11:05:29.092Z,16.09
2022-11-09T11:07:56.839Z,16.02
2022-11-09T11:10:24.902Z,16.09
2022-11-09T11:12:58.293Z,16.12
2022-11-09T11:15:27.407Z,16.20
2022-11-09T11:18:03.069Z,16.15
2022-11-09T11:20:32.132Z,16.17
2022-11-09T11:23:12.677Z,16.26
2022-11-09T11:25:55.885Z,16.23
2022-11-09T11:28:30.063Z,16.21
2022-11-09T11:30:57.637Z,16.31
2022-11-09T11:33:26.680Z,16.22
2022-11-09T11:35:57.420Z,16.26
2022-11-09T11:38:30.099Z,16.12
2022-11-09T11:41:03.692Z,16.21
2022-11-09T11:43:39.285Z,16.11
2022-11-09T11:46:15.619Z,16.07
2022-11-09T11:49:06.055Z,16.14
2022-11-09T11:51:40.719Z,16.19
2022-11-09T11:54:15.627Z,16.15
2022-11-09T11:56:45.943Z,16.23
2022-11-09T11:59:29.755Z,16.35
2022-11-09T12:02:09.227Z,16.35
2022-11-09T12:04:54.140Z,16.38
2022-11-09T12:07:28.700Z,16.34
2022-11-09T12:10:08.335Z,16.34
2022-11-09T12:12:41.832Z,16.55
2022-11-09T12:15:33.003Z,16.44
2022-11-09T12:18:09.487Z,16.40
2022-11-09T12:20:45.140Z,16.39
2022-11-09T12:23:22.569Z,16.42
2022-11-09T12:25:57.848Z,16.43
2022-11-09T12:28:35.957Z,16.37
2022-11-09T12:31:13.028Z,16.39
2022-11-09T12:33:45.170Z,16.41
2022-11-09T12:36:17.938Z,16.48
2022-11-09T12:38:54.147Z,16.39
2022-11-09T12:41:23.598Z,16.56
2022-11-09T12:43:55.461Z,16.51
2022-11-09T12:46:28.179Z,16.52
2022-11-09T12:48:56.574Z,16.47
2022-11-09T12:51:25.664Z,16.45
2022-11-09T12:53:53.273Z,16.41
2022-11-09T12:56:25.804Z,16.37
2022-11-09T12:58:53.393Z,16.53
2022-11-09T13:01:45.026Z,16.45
2022-11-09T13:04:17.457Z,16.52
2022-11-09T13:07:39.356Z,16.55
2022-11-09T13:10:25.217Z,16.49
2022-11-09T13:13:02.916Z,16.60
2022-11-09T13:15:32.412Z,16.58
2022-11-09T13:18:03.664Z,16.51
2022-11-09T13:20:55.442Z,16.51
2022-11-09T13:24:00.097Z,16.62
2022-11-09T13:26:57.120Z,16.55
2022-11-09T13:29:26.892Z,16.53
2022-11-09T13:32:18.072Z,16.64
2022-11-09T13:34:47.506Z,16.59
2022-11-09T13:37:37.678Z,16.49
2022-11-09T13:40:38.486Z,16.50
2022-11-09T13:43:15.456Z,16.41
2022-11-09T13:45:46.003Z,16.52
2022-11-09T13:48:28.298Z,16.47
2022-11-09T13:50:56.814Z,16.43
2022-11-09T13:53:29.655Z,16.52
2022-11-09T13:55:57.429Z,16.52
2022-11-09T13:58:29.900Z,16.53
2022-11-09T14:00:57.451Z,16.52
2022-11-09T14:03:26.323Z,16.42
2022-11-09T14:05:55.991Z,16.54
2022-11-09T14:08:25.087Z,16.41
2022-11-09T14:11:09.569Z,16.37
2022-11-09T14:13:51.564Z,16.41
2022-11-09T14:16:26.447Z,16.46
2022-11-09T14:19:04.618Z,16.46
2022-11-09T14:21:40.492Z,16.46
2022-11-09T14:24:16.204Z,16.43
2022-11-09T14:27:06.331Z,16.39
2022-11-09T14:29:35.431Z,16.36
2022-11-09T14:32:04.044Z,16.33
2022-11-09T14:34:31.626Z,16.30
2022-11-09T14:37:04.547Z,16.38
2022-11-09T14:39:34.267Z,16.32
2022-11-09T14:42:02.044Z,16.27
2022-11-09T14:44:32.231Z,16.35
2022-11-09T14:47:01.304Z,16.33
2022-11-09T14:49:29.046Z,16.30
2022-11-09T14:51:56.587Z,16.28
2022-11-09T14:54:26.272Z,16.27
2022-11-09T14:56:54.689Z,16.25
2022-11-09T14:59:29.211Z,16.19
2022-11-09T15:02:04.037Z,16.18
2022-11-09T15:04:31.751Z,16.20
2022-11-09T15:07:02.349Z,16.20
2022-11-09T15:09:34.146Z,16.22
2022-11-09T15:12:01.688Z,16.23
2022-11-09T15:14:30.713Z,16.23
2022-11-09T15:17:02.989Z,16.32
2022-11-09T15:19:32.587Z,16.18
2022-11-09T15:22:00.505Z,16.43
2022-11-09T15:24:29.543Z,16.47
2022-11-09T15:26:58.026Z,16.22
2022-11-09T15:29:31.981Z,16.09
2022-11-09T15:32:02.936Z,16.05
2022-11-09T15:34:34.287Z,16.06
2022-11-09T15:37:01.793Z,16.16
2022-11-09T15:39:29.452Z,16.29
2022-11-09T15:41:57.681Z,16.23
2022-11-09T15:44:25.156Z,16.22
2022-11-09T15:46:54.272Z,16.34
2022-11-09T15:49:25.208Z,16.08
2022-11-09T15:51:53.507Z,16.09
2022-11-09T15:54:21.061Z,16.04
2022-11-09T15:56:48.724Z,16.19
2022-11-09T15:59:20.691Z,16.08
2022-11-09T16:01:48.374Z,16.13
2022-11-09T16:04:15.991Z,16.17
2022-11-09T16:06:46.838Z,16.05
2022-11-09T16:09:14.803Z,16.16
2022-11-09T16:11:42.293Z,16.12
2022-11-09T16:14:09.853Z,16.13
2022-11-09T16:16:37.328Z,15.81
2022-11-09T16:19:05.023Z,15.76
2022-11-09T16:21:32.503Z,15.85
2022-11-09T16:24:01.344Z,15.90
2022-11-09T16:26:28.872Z,15.79
2022-11-09T16:28:56.372Z,15.68
2022-11-09T16:31:50.187Z,15.69
2022-11-09T16:34:11.339Z,15.77
2022-11-09T16:36:46.455Z,15.83
2022-11-09T16:39:17.912Z,15.86
2022-11-09T16:41:48.016Z,15.58
2022-11-09T16:44:16.932Z,15.67
2022-11-09T16:46:46.559Z,15.50
2022-11-09T16:49:14.314Z,15.45
2022-11-09T16:51:41.836Z,15.43
2022-11-09T16:54:09.291Z,15.41
2022-11-09T16:56:38.203Z,15.29
2022-11-09T16:59:05.742Z,15.37
2022-11-09T17:01:33.719Z,15.27
2022-11-09T17:04:03.048Z,15.34
2022-11-09T17:06:30.541Z,15.29
2022-11-09T17:08:58.132Z,15.32
2022-11-09T17:11:25.806Z,15.37
2022-11-09T17:13:58.272Z,15.40
2022-11-09T17:16:26.176Z,15.36
2022-11-09T17:18:54.544Z,15.35
2022-11-09T17:21:22.473Z,15.30
2022-11-09T17:23:50.847Z,15.33
2022-11-09T17:26:18.913Z,15.50
2022-11-09T17:28:46.368Z,15.42
2022-11-09T17:31:16.714Z,15.38
2022-11-09T17:33:44.871Z,15.55
2022-11-09T17:36:14.571Z,15.47
2022-11-09T17:38:42.049Z,15.32
2022-11-09T17:41:11.177Z,15.35
2022-11-09T17:43:40.883Z,15.40
2022-11-09T17:46:10.355Z,15.39
2022-11-09T17:48:40.486Z,15.36
2022-11-09T17:51:12.708Z,15.46
2022-11-09T17:53:40.391Z,15.39
2022-11-09T17:56:09.683Z,15.48
2022-11-09T17:58:39.956Z,15.34
2022-11-09T18:01:08.450Z,15.37
2022-11-09T18:03:37.226Z,15.37
2022-11-09T18:06:10.980Z,15.35
2022-11-09T18:08:38.525Z,15.39
2022-11-09T18:11:06.375Z,15.48
2022-11-09T18:13:33.829Z,15.37
2022-11-09T18:16:06.364Z,15.36
2022-11-09T18:18:34.105Z,15.41
2022-11-09T18:21:07.752Z,15.40
2022-11-09T18:23:36.052Z,15.38
2022-11-09T18:28:56.593Z,15.15
2022-11-09T18:31:24.104Z,15.28
2022-11-09T18:33:51.660Z,15.27
2022-11-09T18:36:21.975Z,15.26
2022-11-09T18:38:51.715Z,15.24
2022-11-09T18:41:22.505Z,15.25
2022-11-09T18:43:51.059Z,15.41
2022-11-09T18:46:19.869Z,15.37
2022-11-09T18:48:51.330Z,15.40
2022-11-09T18:51:20.589Z,15.27
2022-11-09T18:53:49.059Z,15.32
2022-11-09T18:56:21.439Z,15.14
2022-11-09T18:58:49.921Z,15.36
2022-11-09T19:01:17.650Z,15.16
2022-11-09T19:03:45.350Z,15.39
2022-11-09T19:06:14.548Z,15.40
2022-11-09T19:09:00.904Z,15.32
2022-11-09T19:11:29.880Z,15.44
2022-11-09T19:13:57.358Z,15.58
2022-11-09T19:16:25.730Z,15.41
2022-11-09T19:18:53.296Z,15.42
2022-11-09T19:21:30.130Z,15.39
2022-11-09T19:23:58.954Z,15.50
2022-11-09T19:26:26.410Z,15.48
2022-11-09T19:28:53.886Z,15.45
2022-11-09T19:31:23.239Z,15.40
2022-11-09T19:33:50.864Z,15.57
2022-11-09T19:36:34.316Z,15.58
2022-11-09T19:39:03.530Z,15.50
2022-11-09T19:41:31.008Z,15.27
2022-11-09T19:43:59.275Z,15.41
2022-11-09T19:46:27.267Z,15.34
2022-11-09T19:48:54.810Z,15.30
2022-11-09T19:51:22.386Z,15.34
2022-11-09T19:53:51.162Z,15.48
2022-11-09T19:56:20.985Z,15.36
2022-11-09T19:58:50.064Z,15.31
2022-11-09T20:01:17.991Z,15.27
2022-11-09T20:03:45.500Z,15.35
2022-11-09T20:06:13.128Z,15.10
2022-11-09T20:08:40.778Z,15.23
2022-11-09T20:11:09.648Z,15.08
2022-11-09T20:13:39.342Z,15.12
2022-11-09T20:16:09.493Z,15.15
2022-11-09T20:18:37.583Z,15.18
2022-11-09T20:21:07.131Z,15.00
2022-11-09T20:23:34.599Z,15.12
2022-11-09T20:26:05.536Z,15.03
2022-11-09T20:28:33.262Z,15.05
2022-11-09T20:31:03.958Z,15.11
2022-11-09T20:33:31.403Z,15.00
2022-11-09T20:35:58.873Z,15.12
2022-11-09T20:38:26.315Z,15.12
2022-11-09T20:40:55.154Z,14.95
2022-11-09T20:43:22.881Z,15.10
2022-11-09T20:45:50.664Z,14.95
2022-11-09T20:48:47.072Z,15.17
2022-11-09T20:51:09.368Z,14.97
2022-11-09T20:53:37.223Z,14.98
2022-11-09T20:56:05.231Z,14.87
2022-11-09T20:58:32.766Z,14.83
2022-11-09T21:01:02.100Z,14.81
2022-11-09T21:03:31.217Z,14.90
2022-11-09T21:05:59.503Z,14.94
2022-11-09T21:08:27.020Z,14.80
2022-11-09T21:10:54.909Z,14.83
2022-11-09T21:13:23.184Z,14.89
2022-11-09T21:15:50.621Z,14.97
2022-11-09T21:18:18.254Z,15.02
2022-11-09T21:20:47.175Z,14.97
2022-11-09T21:23:32.386Z,15.05
2022-11-09T21:26:18.123Z,15.25
2022-11-09T21:29:03.371Z,15.04
2022-11-09T21:31:30.810Z,15.14
2022-11-09T21:33:58.295Z,15.02
2022-11-09T21:36:27.089Z,14.98
2022-11-09T21:38:54.547Z,14.91
2022-11-09T21:41:40.127Z,15.08
2022-11-09T21:44:12.435Z,14.93
2022-11-09T21:46:41.154Z,14.85
2022-11-09T21:49:10.173Z,14.87
2022-11-09T21:51:40.155Z,14.99
2022-11-09T21:54:08.591Z,14.95
2022-11-09T21:56:36.255Z,14.81
2022-11-09T21:59:03.881Z,14.76
2022-11-09T22:01:31.931Z,14.80
2022-11-09T22:03:59.642Z,14.84
2022-11-09T22:06:27.558Z,14.82
2022-11-09T22:08:56.337Z,14.87
2022-11-09T22:11:45.829Z,14.63
2022-11-09T22:14:31.183Z,14.76
2022-11-09T22:16:58.792Z,14.82
2022-11-09T22:19:43.764Z,14.60
2022-11-09T22:22:11.480Z,14.52
2022-11-09T22:24:40.454Z,14.68
2022-11-09T22:27:07.956Z,14.68
2022-11-09T22:29:35.534Z,14.81
2022-11-09T22:32:03.068Z,14.77
2022-11-09T22:34:30.717Z,14.67
2022-11-09T22:36:58.264Z,14.60
2022-11-09T22:39:25.837Z,14.53
2022-11-09T22:41:54.770Z,14.56
2022-11-09T22:44:22.305Z,14.65
2022-11-09T22:46:49.887Z,14.65
2022-11-09T22:49:18.126Z,14.59
2022-11-09T22:51:45.667Z,14.68
2022-11-09T22:54:13.584Z,14.76
2022-11-09T22:56:41.070Z,14.82
2022-11-09T22:59:09.948Z,14.72
2022-11-09T23:01:37.436Z,14.63
2022-11-09T23:04:05.242Z,14.56
2022-11-09T23:06:33.520Z,14.61
2022-11-09T23:09:01.040Z,14.83
2022-11-09T23:11:28.503Z,14.71
2022-11-09T23:13:56.672Z,14.74
2022-11-09T23:16:27.708Z,14.71
2022-11-09T23:18:54.702Z,14.61
2022-11-09T23:21:24.579Z,14.66
2022-11-09T23:23:52.774Z,14.56
2022-11-09T23:26:20.238Z,14.64
2022-11-09T23:28:47.762Z,14.85
2022-11-09T23:31:16.936Z,14.72
2022-11-09T23:33:45.933Z,14.73
2022-11-09T23:36:13.481Z,14.66
2022-11-09T23:38:41.816Z,14.71
2022-11-09T23:41:11.548Z,14.76
2022-11-09T23:43:39.212Z,14.72
2022-11-09T23:46:08.607Z,14.59
2022-11-09T23:48:36.038Z,14.49
2022-11-09T23:51:05.542Z,14.53
2022-11-09T23:53:33.179Z,14.48
2022-11-09T23:56:03.477Z,14.52
2022-11-09T23:58:31.483Z,14.62
